createdAt,value
2018-11-25T00:00:25.169Z,99586.92
2018-11-25T00:02:53.744Z,99585.45
2018-11-25T00:05:22.360Z,99584.28
2018-11-25T00:07:50.880Z,99573.06
2018-11-25T00:10:19.424Z,99572.38
2018-11-25T00:12:47.908Z,99575.63
2018-11-25T00:15:16.360Z,99575.45
2018-11-25T00:17:44.794Z,99575.95
2018-11-25T00:20:13.979Z,99572.66
2018-11-25T00:22:42.954Z,99574.61
2018-11-25T00:25:13.017Z,99572.65
2018-11-25T00:27:41.622Z,99571.51
2018-11-25T00:30:12.692Z,99567.89
2018-11-25T00:32:41.266Z,99568.05
2018-11-25T00:35:11.551Z,99558.78
2018-11-25T00:37:47.529Z,99555.82
2018-11-25T00:40:14.053Z,99554.19
2018-11-25T00:42:43.279Z,99551.09
2018-11-25T00:45:14.769Z,99551.71
2018-11-25T00:47:43.282Z,99554.14
2018-11-25T00:50:13.071Z,99556.58
2018-11-25T00:52:41.537Z,99552.15
2018-11-25T00:55:11.739Z,99546.95
2018-11-25T00:57:40.235Z,99544.67
2018-11-25T01:00:19.285Z,99551.66
2018-11-25T01:02:49.210Z,99547.44
2018-11-25T01:05:17.720Z,99539.79
2018-11-25T01:07:46.257Z,99541.25
2018-11-25T01:10:15.968Z,99538.45
2018-11-25T01:12:45.441Z,99535.84
2018-11-25T01:15:16.259Z,99542.02
2018-11-25T01:17:44.966Z,99530.64
2018-11-25T01:20:21.254Z,99534.17
2018-11-25T01:22:49.708Z,99529.95
2018-11-25T01:25:18.213Z,99532.54
2018-11-25T01:27:47.070Z,99535.27
2018-11-25T01:30:17.440Z,99525.19
2018-11-25T01:32:45.881Z,99521.92
2018-11-25T01:35:14.432Z,99520.63
2018-11-25T01:37:46.896Z,99515.91
2018-11-25T01:40:17.536Z,99518.31
2018-11-25T01:42:46.116Z,99520.09
2018-11-25T01:45:16.888Z,99509.38
2018-11-25T01:47:45.459Z,99504.66
2018-11-25T01:50:16.361Z,99499.09
2018-11-25T01:52:45.950Z,99504.45
2018-11-25T01:55:16.831Z,99498.27
2018-11-25T01:57:45.304Z,99493.34
2018-11-25T02:00:18.346Z,99488.95
2018-11-25T02:02:46.947Z,99484.37
2018-11-25T02:05:15.862Z,99481.59
2018-11-25T02:07:44.424Z,99474.77
2018-11-25T02:10:15.511Z,99468.43
2018-11-25T02:12:44.073Z,99468.23
2018-11-25T02:15:13.884Z,99469.84
2018-11-25T02:17:42.401Z,99469.97
2018-11-25T02:20:19.325Z,99468.17
2018-11-25T02:22:48.015Z,99466.22
2018-11-25T02:25:16.562Z,99465.05
2018-11-25T02:27:45.364Z,99463.13
2018-11-25T02:30:17.015Z,99455.34
2018-11-25T02:32:46.256Z,99456.97
2018-11-25T02:35:15.976Z,99455.34
2018-11-25T02:37:44.660Z,99452.05
2018-11-25T02:40:19.007Z,99455.45
2018-11-25T02:42:47.482Z,99446.31
2018-11-25T02:45:19.242Z,99457.83
2018-11-25T02:47:47.880Z,99457.50
2018-11-25T02:50:27.064Z,99454.09
2018-11-25T02:52:57.022Z,99452.30
2018-11-25T02:55:26.817Z,99450.67
2018-11-25T02:57:55.206Z,99443.38
2018-11-25T03:00:23.678Z,99442.07
2018-11-25T03:02:52.570Z,99440.41
2018-11-25T03:05:21.110Z,99436.87
2018-11-25T03:07:49.574Z,99440.77
2018-11-25T03:10:18.055Z,99440.41
2018-11-25T03:12:46.492Z,99441.71
2018-11-25T03:15:16.976Z,99430.38
2018-11-25T03:17:45.611Z,99433.64
2018-11-25T03:20:15.270Z,99431.52
2018-11-25T03:22:47.701Z,99435.91
2018-11-25T03:25:19.354Z,99441.23
2018-11-25T03:27:47.881Z,99442.84
2018-11-25T03:30:17.664Z,99437.80
2018-11-25T03:32:47.531Z,99434.88
2018-11-25T03:35:16.002Z,99435.97
2018-11-25T03:37:44.457Z,99435.14
2018-11-25T03:40:14.472Z,99438.34
2018-11-25T03:42:42.941Z,99432.49
2018-11-25T03:45:13.926Z,99431.50
2018-11-25T03:47:42.426Z,99425.12
2018-11-25T03:50:12.262Z,99425.88
2018-11-25T03:52:40.802Z,99416.63
2018-11-25T03:55:11.562Z,99417.72
2018-11-25T03:57:40.127Z,99419.66
2018-11-25T04:00:18.052Z,99422.89
2018-11-25T04:02:46.588Z,99424.95
2018-11-25T04:05:18.255Z,99428.99
2018-11-25T04:07:46.739Z,99426.22
2018-11-25T04:10:17.138Z,99424.72
2018-11-25T04:12:45.659Z,99420.80
2018-11-25T04:15:16.431Z,99424.70
2018-11-25T04:17:45.468Z,99415.73
2018-11-25T04:20:18.273Z,99420.47
2018-11-25T04:22:46.964Z,99417.52
2018-11-25T04:25:15.455Z,99415.89
2018-11-25T04:27:43.931Z,99410.85
2018-11-25T04:30:14.726Z,99409.47
2018-11-25T04:32:44.292Z,99410.26
2018-11-25T04:35:13.164Z,99408.09
2018-11-25T04:37:41.793Z,99418.78
2018-11-25T04:40:11.842Z,99398.45
2018-11-25T04:42:40.274Z,99394.70
2018-11-25T04:45:12.117Z,99385.58
2018-11-25T04:47:40.654Z,99387.36
2018-11-25T04:50:15.992Z,99384.10
2018-11-25T04:52:44.865Z,99382.63
2018-11-25T04:55:13.700Z,99382.90
2018-11-25T04:57:45.969Z,99377.05
2018-11-25T05:00:14.822Z,99374.61
2018-11-25T05:02:43.303Z,99371.66
2018-11-25T05:05:13.307Z,99370.84
2018-11-25T05:07:41.750Z,99364.51
2018-11-25T05:10:13.594Z,99361.73
2018-11-25T05:12:45.970Z,99361.41
2018-11-25T05:15:19.875Z,99358.45
2018-11-25T05:17:48.518Z,99358.42
2018-11-25T05:20:18.072Z,99356.92
2018-11-25T05:22:46.533Z,99351.28
2018-11-25T05:25:18.821Z,99347.52
2018-11-25T05:27:47.358Z,99348.81
2018-11-25T05:30:18.164Z,99341.52
2018-11-25T05:32:46.718Z,99331.30
2018-11-25T05:35:16.637Z,99340.03
2018-11-25T05:37:45.112Z,99336.78
2018-11-25T05:40:15.339Z,99338.53
2018-11-25T05:42:43.882Z,99339.98
2018-11-25T05:45:16.709Z,99341.76
2018-11-25T05:47:45.187Z,99334.61
2018-11-25T05:50:18.811Z,99334.41
2018-11-25T05:52:47.307Z,99325.97
2018-11-25T05:55:16.056Z,99329.85
2018-11-25T05:57:44.561Z,99325.97
2018-11-25T06:00:21.967Z,99326.45
2018-11-25T06:02:51.069Z,99319.97
2018-11-25T06:05:19.642Z,99323.37
2018-11-25T06:07:48.072Z,99319.48
2018-11-25T06:10:16.737Z,99323.05
2018-11-25T06:12:45.169Z,99328.38
2018-11-25T06:15:14.617Z,99320.88
2018-11-25T06:17:43.200Z,99324.58
2018-11-25T06:20:17.564Z,99326.69
2018-11-25T06:22:46.476Z,99326.20
2018-11-25T06:25:18.172Z,99325.55
2018-11-25T06:27:46.672Z,99322.29
2018-11-25T06:30:16.613Z,99318.86
2018-11-25T06:32:45.003Z,99323.70
2018-11-25T06:35:18.130Z,99317.38
2018-11-25T06:37:46.600Z,99323.86
2018-11-25T06:40:16.644Z,99317.38
2018-11-25T06:42:45.147Z,99318.16
2018-11-25T06:45:25.429Z,99318.77
2018-11-25T06:47:55.703Z,99305.95
2018-11-25T06:50:24.199Z,99314.70
2018-11-25T06:52:52.745Z,99315.99
2018-11-25T06:55:21.224Z,99318.10
2018-11-25T06:57:49.672Z,99319.55
2018-11-25T07:00:22.600Z,99317.77
2018-11-25T07:02:51.151Z,99320.20
2018-11-25T07:05:19.613Z,99319.88
2018-11-25T07:07:48.069Z,99318.58
2018-11-25T07:10:22.474Z,99319.25
2018-11-25T07:12:54.678Z,99322.65
2018-11-25T07:15:23.182Z,99328.86
2018-11-25T07:17:51.696Z,99327.27
2018-11-25T07:20:20.308Z,99326.18
2018-11-25T07:22:48.730Z,99328.62
2018-11-25T07:25:18.852Z,99322.32
2018-11-25T07:27:47.470Z,99323.19
2018-11-25T07:30:20.204Z,99324.19
2018-11-25T07:32:49.010Z,99320.69
2018-11-25T07:35:25.009Z,99326.59
2018-11-25T07:37:54.052Z,99324.08
2018-11-25T07:40:23.859Z,99318.00
2018-11-25T07:42:53.292Z,99319.59
2018-11-25T07:45:30.280Z,99314.84
2018-11-25T07:47:53.153Z,99308.68
2018-11-25T07:50:21.696Z,99301.17
2018-11-25T07:52:50.899Z,99296.94
2018-11-25T07:55:26.204Z,99288.02
2018-11-25T07:57:57.138Z,99290.46
2018-11-25T08:00:26.211Z,99282.30
2018-11-25T08:02:54.706Z,99273.59
2018-11-25T08:05:25.612Z,99267.44
2018-11-25T08:07:54.034Z,99257.26
2018-11-25T08:10:22.884Z,99258.39
2018-11-25T08:12:51.321Z,99251.08
2018-11-25T08:15:20.291Z,99247.64
2018-11-25T08:17:48.798Z,99240.94
2018-11-25T08:20:19.356Z,99230.05
2018-11-25T08:22:47.888Z,99229.95
2018-11-25T08:25:18.801Z,99225.38
2018-11-25T08:27:47.317Z,99222.95
2018-11-25T08:30:20.015Z,99217.88
2018-11-25T08:32:49.317Z,99216.67
2018-11-25T08:35:18.244Z,99210.37
2018-11-25T08:37:46.752Z,99207.95
2018-11-25T08:40:17.873Z,99200.27
2018-11-25T08:42:47.105Z,99197.01
2018-11-25T08:45:16.197Z,99188.84
2018-11-25T08:47:44.669Z,99196.62
2018-11-25T08:50:14.496Z,99193.81
2018-11-25T08:52:44.478Z,99189.37
2018-11-25T08:55:14.704Z,99184.28
2018-11-25T08:57:43.362Z,99193.68
2018-11-25T09:00:21.263Z,99183.64
2018-11-25T09:02:50.798Z,99177.93
2018-11-25T09:05:19.468Z,99178.56
2018-11-25T09:07:47.957Z,99171.45
2018-11-25T09:10:21.698Z,99164.25
2018-11-25T09:12:55.727Z,99160.31
2018-11-25T09:15:23.308Z,99155.25
2018-11-25T09:17:52.113Z,99154.61
2018-11-25T09:20:21.694Z,99157.14
2018-11-25T09:22:51.151Z,99144.27
2018-11-25T09:25:27.269Z,99143.84
2018-11-25T09:27:56.942Z,99145.51
2018-11-25T09:30:27.735Z,99135.97
2018-11-25T09:32:56.468Z,99135.45
2018-11-25T09:35:25.329Z,99133.02
2018-11-25T09:38:12.122Z,99131.48
2018-11-25T09:40:50.193Z,99131.75
2018-11-25T09:43:29.845Z,99130.69
2018-11-25T09:46:02.946Z,99134.88
2018-11-25T09:48:33.286Z,99134.03
2018-11-25T09:51:05.499Z,99128.09
2018-11-25T09:53:40.593Z,99126.16
2018-11-25T09:56:17.223Z,99115.73
2018-11-25T09:58:47.135Z,99119.05
2018-11-25T10:01:16.730Z,99112.78
2018-11-25T10:03:45.376Z,99107.25
2018-11-25T10:06:13.632Z,99101.26
2018-11-25T10:08:42.038Z,99099.10
2018-11-25T10:11:13.721Z,99094.84
2018-11-25T10:20:17.173Z,99073.97
2018-11-25T10:22:48.652Z,99070.23
2018-11-25T10:25:19.357Z,99071.89
2018-11-25T10:27:47.988Z,99069.41
2018-11-25T10:30:23.307Z,99064.47
2018-11-25T10:32:55.099Z,99053.27
2018-11-25T10:35:33.655Z,99056.13
2018-11-25T10:38:09.606Z,99056.84
2018-11-25T10:40:39.552Z,99063.17
2018-11-25T10:43:08.081Z,99055.37
2018-11-25T10:45:36.207Z,99060.52
2018-11-25T10:48:05.711Z,99053.41
2018-11-25T10:50:34.592Z,99050.02
2018-11-25T10:55:34.176Z,99040.36
2018-11-25T10:58:05.581Z,99036.13
2018-11-25T11:00:55.706Z,99037.22
2018-11-25T11:04:01.043Z,99043.39
2018-11-25T11:06:49.998Z,99035.98
2018-11-25T11:09:20.708Z,99036.23
2018-11-25T11:11:55.046Z,99026.08
2018-11-25T11:14:29.654Z,99021.77
2018-11-25T11:17:12.389Z,99018.30
2018-11-25T11:19:45.152Z,99017.73
2018-11-25T11:22:22.702Z,99011.32
2018-11-25T11:24:55.589Z,98999.86
2018-11-25T11:27:39.297Z,98995.73
2018-11-25T11:30:17.443Z,98989.47
2018-11-25T11:33:02.375Z,98990.73
2018-11-25T11:35:33.232Z,98994.16
2018-11-25T11:40:58.875Z,98989.88
2018-11-25T11:43:27.196Z,98982.84
2018-11-25T11:45:55.649Z,98985.14
2018-11-25T11:48:24.045Z,98977.28
2018-11-25T11:50:52.480Z,98981.51
2018-11-25T11:53:20.868Z,98981.42
2018-11-25T11:55:49.244Z,98979.72
2018-11-25T11:58:17.723Z,98984.23
2018-11-25T12:00:46.169Z,98984.78
2018-11-25T12:03:14.620Z,98985.91
2018-11-25T12:05:43.075Z,98980.37
2018-11-25T12:08:11.773Z,98986.86
2018-11-25T12:10:40.254Z,98981.34
2018-11-25T12:13:08.681Z,98980.05
2018-11-25T12:15:37.090Z,98969.17
2018-11-25T12:18:06.853Z,98971.37
2018-11-25T12:20:35.529Z,98964.72
2018-11-25T12:23:04.349Z,98963.39
2018-11-25T12:25:33.074Z,98961.83
2018-11-25T12:28:01.551Z,98950.70
2018-11-25T12:30:29.947Z,98955.38
2018-11-25T12:32:58.377Z,98954.41
2018-11-25T12:35:26.793Z,98946.52
2018-11-25T12:37:55.211Z,98951.20
2018-11-25T12:40:23.734Z,98949.40
2018-11-25T12:42:58.710Z,98946.30
2018-11-25T12:45:27.215Z,98946.90
2018-11-25T12:47:55.605Z,98944.20
2018-11-25T12:50:25.608Z,98947.95
2018-11-25T12:52:54.612Z,98943.67
2018-11-25T12:55:24.945Z,98939.39
2018-11-25T12:57:54.102Z,98938.31
2018-11-25T13:00:32.089Z,98936.39
2018-11-25T13:03:00.997Z,98930.06
2018-11-25T13:05:36.595Z,98933.78
2018-11-25T13:08:06.200Z,98925.81
2018-11-25T13:10:34.573Z,98923.41
2018-11-25T13:13:03.066Z,98917.83
2018-11-25T13:15:31.514Z,98915.16
2018-11-25T13:17:59.933Z,98909.29
2018-11-25T13:20:28.403Z,98915.68
2018-11-25T13:22:56.835Z,98910.61
2018-11-25T13:25:25.421Z,98911.42
2018-11-25T13:27:53.857Z,98905.29
2018-11-25T13:30:24.134Z,98904.97
2018-11-25T13:32:54.304Z,98896.16
2018-11-25T13:35:23.292Z,98900.09
2018-11-25T13:37:51.890Z,98901.61
2018-11-25T13:40:20.284Z,98908.59
2018-11-25T13:42:48.663Z,98907.41
2018-11-25T13:45:17.065Z,98910.72
2018-11-25T13:47:45.532Z,98914.24
2018-11-25T13:50:13.988Z,98912.69
2018-11-25T13:52:42.468Z,98915.41
2018-11-25T13:55:13.978Z,98912.20
2018-11-25T13:57:42.424Z,98915.06
2018-11-25T14:00:18.100Z,98915.03
2018-11-25T14:02:46.505Z,98922.08
2018-11-25T14:05:15.377Z,98919.84
2018-11-25T14:07:43.761Z,98927.31
2018-11-25T14:10:17.643Z,98920.53
2018-11-25T14:12:46.082Z,98923.58
2018-11-25T14:15:14.508Z,98921.88
2018-11-25T14:17:43.039Z,98920.47
2018-11-25T14:20:11.457Z,98917.22
2018-11-25T14:22:39.865Z,98917.19
2018-11-25T14:25:12.079Z,98925.03
2018-11-25T14:27:40.689Z,98921.98
2018-11-25T14:30:20.083Z,98925.52
2018-11-25T14:32:48.602Z,98919.58
2018-11-25T14:35:17.602Z,98917.09
2018-11-25T14:37:46.069Z,98926.30
2018-11-25T14:40:19.018Z,98914.33
2018-11-25T14:42:47.793Z,98917.44
2018-11-25T14:45:17.511Z,98922.44
2018-11-25T14:47:45.960Z,98924.01
2018-11-25T14:50:17.286Z,98920.37
2018-11-25T14:52:47.906Z,98923.00
2018-11-25T14:55:16.983Z,98921.16
2018-11-25T14:57:45.400Z,98924.09
2018-11-25T15:00:16.804Z,98920.73
2018-11-25T15:02:47.572Z,98922.63
2018-11-25T15:05:30.481Z,98924.22
2018-11-25T15:07:59.101Z,98920.56
2018-11-25T15:10:27.538Z,98918.52
2018-11-25T15:12:55.923Z,98923.33
2018-11-25T15:15:24.395Z,98928.47
2018-11-25T15:17:52.756Z,98928.02
2018-11-25T15:20:21.123Z,98926.53
2018-11-25T15:22:52.421Z,98923.45
2018-11-25T15:25:31.170Z,98919.84
2018-11-25T15:27:59.725Z,98922.53
2018-11-25T15:30:28.191Z,98922.81
2018-11-25T15:32:56.591Z,98924.98
2018-11-25T15:35:25.021Z,98917.65
2018-11-25T15:37:54.578Z,98928.41
2018-11-25T15:40:29.497Z,98922.91
2018-11-25T15:42:58.024Z,98924.95
2018-11-25T15:45:26.462Z,98923.39
2018-11-25T15:48:07.931Z,98923.66
2018-11-25T15:50:36.380Z,98920.69
2018-11-25T15:53:05.897Z,98913.02
2018-11-25T15:55:34.323Z,98920.36
2018-11-25T15:58:02.809Z,98916.66
2018-11-25T16:00:31.249Z,98916.61
2018-11-25T16:02:59.802Z,98919.45
2018-11-25T16:05:31.444Z,98917.27
2018-11-25T16:08:00.448Z,98920.64
2018-11-25T16:10:29.243Z,98924.78
2018-11-25T16:12:57.681Z,98917.56
2018-11-25T16:15:27.530Z,98924.32
2018-11-25T16:17:56.279Z,98919.27
2018-11-25T16:20:27.309Z,98926.06
2018-11-25T16:22:58.852Z,98920.72
2018-11-25T16:25:38.283Z,98921.42
2018-11-25T16:28:15.329Z,98933.30
2018-11-25T16:30:43.834Z,98926.43
2018-11-25T16:33:12.324Z,98924.30
2018-11-25T16:35:40.959Z,98920.15
2018-11-25T16:38:09.542Z,98925.67
2018-11-25T16:40:38.021Z,98929.59
2018-11-25T16:43:06.726Z,98928.86
2018-11-25T16:45:35.200Z,98932.94
2018-11-25T16:48:03.698Z,98930.07
2018-11-25T16:50:32.481Z,98931.63
2018-11-25T16:53:00.905Z,98928.53
2018-11-25T16:55:29.313Z,98924.77
2018-11-25T16:57:57.800Z,98927.36
2018-11-25T17:00:30.298Z,98922.08
2018-11-25T17:02:58.727Z,98918.82
2018-11-25T17:05:32.238Z,98911.73
2018-11-25T17:08:11.930Z,98908.88
2018-11-25T17:10:40.441Z,98901.63
2018-11-25T17:13:08.847Z,98893.84
2018-11-25T17:15:37.292Z,98889.31
2018-11-25T17:18:06.136Z,98892.48
2018-11-25T17:20:34.579Z,98882.68
2018-11-25T17:23:03.023Z,98875.16
2018-11-25T17:25:31.509Z,98874.99
2018-11-25T17:28:01.648Z,98872.83
2018-11-25T17:30:30.279Z,98875.39
2018-11-25T17:32:58.661Z,98872.11
2018-11-25T17:35:29.381Z,98867.94
2018-11-25T17:37:57.845Z,98866.38
2018-11-25T17:40:26.384Z,98868.58
2018-11-25T17:42:55.046Z,98865.66
2018-11-25T17:45:23.573Z,98876.74
2018-11-25T17:47:52.564Z,98880.05
2018-11-25T17:50:29.345Z,98878.94
2018-11-25T17:52:58.038Z,98866.07
2018-11-25T17:55:28.290Z,98868.23
2018-11-25T17:57:57.279Z,98866.17
2018-11-25T18:00:50.522Z,98864.94
2018-11-25T18:03:24.898Z,98874.44
2018-11-25T18:05:54.208Z,98868.30
2018-11-25T18:08:22.815Z,98868.98
2018-11-25T18:10:51.554Z,98863.92
2018-11-25T18:13:22.370Z,98862.62
2018-11-25T18:15:52.338Z,98862.31
2018-11-25T18:18:34.536Z,98859.20
2018-11-25T18:21:08.210Z,98855.98
2018-11-25T18:23:37.149Z,98851.75
2018-11-25T18:26:06.323Z,98850.45
2018-11-25T18:28:34.770Z,98855.03
2018-11-25T18:31:03.271Z,98859.78
2018-11-25T18:33:32.596Z,98861.25
2018-11-25T18:36:01.488Z,98860.14
2018-11-25T18:38:29.938Z,98858.72
2018-11-25T18:40:58.362Z,98860.68
2018-11-25T18:43:26.934Z,98859.88
2018-11-25T18:45:59.386Z,98860.38
2018-11-25T18:48:25.888Z,98858.95
2018-11-25T18:50:54.398Z,98858.14
2018-11-25T18:53:23.045Z,98866.33
2018-11-25T18:55:50.298Z,98867.33
2018-11-25T18:58:18.931Z,98862.80
2018-11-25T19:01:15.127Z,98862.80
2018-11-25T19:03:43.568Z,98861.03
2018-11-25T19:06:12.108Z,98863.53
2018-11-25T19:08:41.473Z,98868.14
2018-11-25T19:11:10.273Z,98873.05
2018-11-25T19:13:39.292Z,98870.91
2018-11-25T19:16:08.372Z,98868.80
2018-11-25T19:18:37.553Z,98868.18
2018-11-25T19:21:06.111Z,98867.06
2018-11-25T19:23:34.974Z,98862.53
2018-11-25T19:26:03.730Z,98864.00
2018-11-25T19:28:32.235Z,98872.63
2018-11-25T19:31:01.363Z,98870.02
2018-11-25T19:33:29.870Z,98871.83
2018-11-25T19:35:58.490Z,98871.33
2018-11-25T19:38:27.616Z,98872.83
2018-11-25T19:40:56.239Z,98876.73
2018-11-25T19:43:25.001Z,98874.81
2018-11-25T19:45:53.510Z,98879.58
2018-11-25T19:48:21.997Z,98879.77
2018-11-25T19:50:50.511Z,98885.17
2018-11-25T19:53:19.384Z,98887.16
2018-11-25T19:55:49.187Z,98887.66
2018-11-25T19:58:17.703Z,98895.16
2018-11-25T20:00:46.750Z,98901.86
2018-11-25T20:03:15.554Z,98899.12
2018-11-25T20:05:44.418Z,98898.86
2018-11-25T20:08:13.057Z,98903.14
2018-11-25T20:10:41.651Z,98900.76
2018-11-25T20:13:11.846Z,98906.32
2018-11-25T20:15:39.439Z,98910.11
2018-11-25T20:18:09.833Z,98906.20
2018-11-25T20:20:38.601Z,98908.62
2018-11-25T20:23:10.622Z,98914.33
2018-11-25T20:25:40.859Z,98917.94
2018-11-25T20:28:10.111Z,98914.36
2018-11-25T20:30:38.769Z,98912.00
2018-11-25T20:33:13.230Z,98908.30
2018-11-25T20:35:41.805Z,98901.17
2018-11-25T20:38:15.873Z,98902.47
2018-11-25T20:40:45.182Z,98910.30
2018-11-25T20:43:13.665Z,98908.80
2018-11-25T20:45:47.867Z,98912.03
2018-11-25T20:48:16.437Z,98907.00
2018-11-25T20:50:45.131Z,98907.50
2018-11-25T20:53:20.686Z,98908.00
2018-11-25T20:55:47.867Z,98909.02
2018-11-25T20:58:16.300Z,98915.25
2018-11-25T21:00:44.792Z,98915.16
2018-11-25T21:03:13.579Z,98916.83
2018-11-25T21:05:42.165Z,98918.94
2018-11-25T21:08:10.578Z,98921.05
2018-11-25T21:10:39.030Z,98922.35
2018-11-25T21:13:08.277Z,98922.48
2018-11-25T21:15:37.240Z,98922.17
2018-11-25T21:18:06.387Z,98927.38
2018-11-25T21:20:34.757Z,98926.27
2018-11-25T21:23:03.858Z,98931.00
2018-11-25T21:25:36.873Z,98930.56
2018-11-25T21:28:05.784Z,98936.45
2018-11-25T21:30:34.739Z,98943.31
2018-11-25T21:33:05.197Z,98938.95
2018-11-25T21:35:33.664Z,98939.92
2018-11-25T21:38:02.086Z,98944.17
2018-11-25T21:40:30.552Z,98943.18
2018-11-25T21:42:58.976Z,98938.46
2018-11-25T21:45:27.435Z,98943.98
2018-11-25T21:47:55.964Z,98943.98
2018-11-25T21:50:26.416Z,98943.18
2018-11-25T21:52:54.994Z,98940.57
2018-11-25T21:55:24.154Z,98939.27
2018-11-25T21:57:52.607Z,98938.95
2018-11-25T22:00:22.425Z,98945.12
2018-11-25T22:02:51.037Z,98933.09
2018-11-25T22:05:20.111Z,98937.49
2018-11-25T22:07:48.372Z,98941.41
2018-11-25T22:10:18.975Z,98945.49
2018-11-25T22:12:47.793Z,98947.30
2018-11-25T22:15:17.914Z,98948.28
2018-11-25T22:17:46.775Z,98945.02
2018-11-25T22:20:15.996Z,98944.70
2018-11-25T22:22:44.491Z,98951.41
2018-11-25T22:25:15.143Z,98955.80
2018-11-25T22:27:43.695Z,98946.55
2018-11-25T22:30:21.878Z,98949.66
2018-11-25T22:32:50.706Z,98953.72
2018-11-25T22:35:21.117Z,98955.02
2018-11-25T22:37:49.557Z,98958.12
2018-11-25T22:40:18.709Z,98958.61
2018-11-25T22:42:49.497Z,98955.38
2018-11-25T22:45:20.768Z,98956.37
2018-11-25T22:47:49.967Z,98957.67
2018-11-25T22:50:21.440Z,98950.84
2018-11-25T22:52:50.118Z,98954.09
2018-11-25T22:55:22.740Z,98952.97
2018-11-25T22:57:51.289Z,98956.57
2018-11-25T23:00:26.517Z,98958.36
2018-11-25T23:02:55.147Z,98956.90
2018-11-25T23:05:40.473Z,98956.90
2018-11-25T23:08:10.013Z,98958.88
2018-11-25T23:10:38.469Z,98957.58
2018-11-25T23:13:06.980Z,98951.87
2018-11-25T23:15:35.485Z,98951.38
2018-11-25T23:18:04.099Z,98940.64
2018-11-25T23:20:32.555Z,98950.25
2018-11-25T23:23:01.071Z,98949.13
2018-11-25T23:25:29.570Z,98948.63
2018-11-25T23:27:58.003Z,98946.18
2018-11-25T23:30:26.478Z,98949.13
2018-11-25T23:32:54.904Z,98944.88
2018-11-25T23:35:27.148Z,98942.42
2018-11-25T23:37:55.629Z,98945.03
2018-11-25T23:40:24.246Z,98945.86
2018-11-25T23:42:52.715Z,98947.98
2018-11-25T23:45:21.197Z,98955.45
2018-11-25T23:47:49.653Z,98959.70
2018-11-25T23:50:18.138Z,98966.21
2018-11-25T23:52:48.020Z,98971.09
2018-11-25T23:55:16.492Z,98965.88
2018-11-25T23:57:44.947Z,98967.50
